Time;durP1;ratioP1;P1;durP2;ratioP2;P2;SDS_P1;SDS_P2;PMS_P1;PMS_P2;Temp;Humidity;BMP_temperature;BMP_pressure;BME280_temperature;BME280_humidity;BME280_pressure;Samples;Min_cycle;Max_cycle;Signal;HPM_P1;HPM_P2
2021/10/07 00:00:13;;;;;;;3.83;1.70;;;10.70;99.90;;;11.52;100.00;98833.44;5011197;28;20569;-81
2021/10/07 00:02:43;;;;;;;8.40;2.00;;;10.60;99.90;;;11.47;100.00;98833.16;5008122;28;21078;-82
2021/10/07 00:05:13;;;;;;;5.43;1.97;;;10.60;99.90;;;11.52;100.00;98838.69;5005394;28;20471;-81
2021/10/07 00:07:42;;;;;;;3.07;1.87;;;10.60;99.90;;;11.52;100.00;98833.44;4996268;28;20467;-82
2021/10/07 00:10:11;;;;;;;5.10;1.93;;;10.60;99.90;;;11.51;100.00;98837.06;5006091;28;20482;-81
2021/10/07 00:12:40;;;;;;;4.70;1.90;;;10.60;99.90;;;11.49;100.00;98839.03;5009877;28;20823;-82
2021/10/07 00:15:11;;;;;;;2.87;1.53;;;10.60;99.90;;;11.50;100.00;98845.91;5009539;28;20487;-82
2021/10/07 00:17:39;;;;;;;2.00;1.77;;;10.60;99.90;;;11.49;100.00;98844.28;5007665;28;20997;-82
2021/10/07 00:20:14;;;;;;;5.73;1.53;;;10.60;99.90;;;11.50;100.00;98845.91;5014983;28;20482;-82
2021/10/07 00:22:44;;;;;;;4.60;2.00;;;10.60;99.90;;;11.50;100.00;98840.69;5014951;28;21060;-82
2021/10/07 00:25:15;;;;;;;8.43;2.93;;;10.60;99.90;;;11.49;100.00;98841.66;5017269;28;20787;-82
2021/10/07 00:27:44;;;;;;;3.50;2.30;;;10.60;99.90;;;11.48;100.00;98844.47;5009485;28;20467;-82
2021/10/07 00:30:16;;;;;;;3.80;1.80;;;10.60;99.90;;;11.48;100.00;98847.09;5011193;28;20962;-81
2021/10/07 00:32:52;;;;;;;3.10;1.90;;;10.60;99.90;;;11.47;100.00;98851.50;5011619;28;20947;-82
2021/10/07 00:40:53;;;;;;;2.13;1.63;;;10.60;99.90;;;11.48;100.00;98847.09;5014242;28;20859;-82
2021/10/07 00:43:22;;;;;;;1.77;1.67;;;10.60;99.90;;;11.48;100.00;98845.28;5011405;28;20465;-82
2021/10/07 00:45:53;;;;;;;3.57;1.83;;;10.50;99.90;;;11.51;100.00;98846.72;5018449;28;20450;-82
2021/10/07 00:48:22;;;;;;;4.03;1.97;;;10.60;99.90;;;11.50;100.00;98845.91;5004668;28;20473;-82
2021/10/07 00:50:53;;;;;;;2.90;1.80;;;10.60;99.90;;;11.46;100.00;98855.09;5009371;28;20467;-82
2021/10/07 00:53:22;;;;;;;5.03;2.07;;;10.60;99.90;;;11.46;100.00;98843.81;5005693;28;20455;-82
2021/10/07 00:55:51;;;;;;;4.83;1.90;;;10.60;99.90;;;11.46;100.00;98849.03;5006897;28;20471;-82
2021/10/07 00:58:20;;;;;;;7.60;1.90;;;10.60;99.90;;;11.48;100.00;98850.53;5007884;28;20459;-82
2021/10/07 01:00:48;;;;;;;3.87;1.70;;;10.60;99.90;;;11.44;100.00;98841.38;5009107;28;20506;-82
2021/10/07 01:03:17;;;;;;;5.70;1.63;;;10.60;99.90;;;11.40;100.00;98844.50;5008539;28;20531;-82
2021/10/07 01:05:47;;;;;;;2.00;1.80;;;10.50;99.90;;;11.44;100.00;98844.00;5009546;28;20952;-82
2021/10/07 01:08:17;;;;;;;6.87;2.07;;;10.50;99.90;;;11.48;100.00;98847.91;5010144;28;20544;-82
2021/10/07 01:10:45;;;;;;;8.07;2.00;;;10.60;99.90;;;11.51;100.00;98852.78;5013195;28;20886;-82
2021/10/07 01:13:14;;;;;;;4.60;1.93;;;10.60;99.90;;;11.52;100.00;98854.41;5006151;28;20541;-82
2021/10/07 01:15:44;;;;;;;1.70;1.60;;;10.70;99.90;;;11.49;100.00;98851.31;5006693;28;20489;-81
2021/10/07 01:18:13;;;;;;;2.77;1.80;;;10.60;99.90;;;11.49;100.00;98854.75;5007784;28;20466;-82
2021/10/07 01:20:43;;;;;;;2.43;1.53;;;10.60;99.90;;;11.49;100.00;98853.94;5012282;28;20526;-82
2021/10/07 01:23:11;;;;;;;2.23;1.50;;;10.60;99.90;;;11.46;100.00;98854.28;5011909;28;20499;-82
2021/10/07 01:25:40;;;;;;;3.47;1.60;;;10.60;99.90;;;11.46;100.00;98862.13;5016046;28;20555;-82
2021/10/07 01:28:09;;;;;;;2.90;1.60;;;10.60;99.90;;;11.50;100.00;98856.38;5006761;28;20521;-82
2021/10/07 01:30:37;;;;;;;4.10;1.93;;;10.70;99.90;;;11.49;100.00;98860.00;5009577;28;20803;-82
2021/10/07 01:33:06;;;;;;;3.27;1.97;;;10.70;99.90;;;11.51;100.00;98867.69;5009891;28;20465;-81
2021/10/07 01:35:35;;;;;;;2.80;1.80;;;10.70;99.90;;;11.50;100.00;98861.63;5013653;28;20462;-82
2021/10/07 01:38:06;;;;;;;7.07;2.00;;;10.70;99.90;;;11.52;100.00;98864.88;5009982;28;20466;-82
2021/10/07 01:40:34;;;;;;;2.57;1.60;;;10.70;99.90;;;11.54;100.00;98868.16;5017554;28;20620;-82
2021/10/07 01:43:03;;;;;;;1.70;1.60;;;10.70;99.90;;;11.54;100.00;98870.78;5010049;28;20886;-82
2021/10/07 01:45:31;;;;;;;4.07;1.50;;;10.70;99.90;;;11.57;100.00;98873.06;5020377;28;20561;-82
2021/10/07 01:48:01;;;;;;;3.87;1.73;;;10.70;99.90;;;11.58;100.00;98877.31;5008491;28;20471;-81
2021/10/07 01:50:30;;;;;;;5.33;1.50;;;10.70;99.90;;;11.58;100.00;98872.06;5008490;28;20498;-82
2021/10/07 01:52:58;;;;;;;10.90;1.93;;;10.70;99.90;;;11.54;100.00;98873.41;5017231;28;20524;-82
2021/10/07 01:55:28;;;;;;;9.60;2.20;;;10.70;99.90;;;11.55;100.00;98869.81;5015021;28;20568;-82
2021/10/07 01:57:57;;;;;;;4.70;2.13;;;10.70;99.90;;;11.54;100.00;98865.53;5016745;28;20486;-82
2021/10/07 02:00:26;;;;;;;2.43;1.80;;;10.70;99.90;;;11.53;100.00;98866.53;5009838;28;20600;-82
2021/10/07 02:02:55;;;;;;;3.63;1.80;;;10.70;99.90;;;11.55;100.00;98864.56;5009211;28;20585;-82
2021/10/07 02:05:23;;;;;;;8.20;3.00;;;10.80;99.90;;;11.59;100.00;98865.81;5007179;28;20628;-82
2021/10/07 02:07:52;;;;;;;4.10;2.03;;;10.80;99.90;;;11.56;100.00;98866.16;5010434;28;20470;-82
2021/10/07 02:10:20;;;;;;;2.23;1.90;;;10.70;99.90;;;11.55;100.00;98868.97;5009649;28;20518;-82
2021/10/07 02:12:51;;;;;;;3.73;1.93;;;10.70;99.90;;;11.53;100.00;98884.84;5011939;28;20495;-82
2021/10/07 02:15:20;;;;;;;3.83;1.60;;;10.70;99.90;;;11.51;100.00;98878.97;5008586;28;20490;-82
2021/10/07 02:17:49;;;;;;;7.27;2.00;;;10.70;99.90;;;11.51;100.00;98876.38;5014155;28;21029;-82
2021/10/07 02:20:17;;;;;;;4.43;2.07;;;10.70;99.90;;;11.55;100.00;98875.03;5022371;28;20481;-82
2021/10/07 02:22:46;;;;;;;5.03;2.20;;;10.70;99.90;;;11.55;100.00;98868.97;5016466;28;20555;-82
2021/10/07 02:25:14;;;;;;;2.83;1.63;;;10.70;99.90;;;11.53;100.00;98866.53;5014293;28;20466;-81
2021/10/07 02:27:43;;;;;;;3.20;2.00;;;10.60;99.90;;;11.54;100.00;98869.97;5010745;28;20498;-82
2021/10/07 02:30:17;;;;;;;3.40;1.70;;;10.70;99.90;;;11.56;100.00;98875.81;5009138;28;20963;-82
2021/10/07 02:32:46;;;;;;;10.93;1.80;;;10.70;99.90;;;11.51;100.00;98873.75;5007492;28;20498;-82
2021/10/07 02:35:16;;;;;;;4.13;2.17;;;10.70;99.90;;;11.50;100.00;98871.28;5005637;28;20955;-82
2021/10/07 02:37:46;;;;;;;2.70;1.77;;;10.60;99.90;;;11.53;100.00;98866.53;5010000;28;20467;-82
2021/10/07 02:40:17;;;;;;;2.03;1.70;;;10.70;99.90;;;11.55;100.00;98863.75;5010747;28;20466;-82
2021/10/07 02:42:47;;;;;;;17.30;2.33;;;10.70;99.90;;;11.55;100.00;98864.56;5012827;28;20559;-82
2021/10/07 02:45:19;;;;;;;1.90;1.70;;;10.70;99.90;;;11.46;100.00;98859.50;5012341;28;20463;-82
2021/10/07 02:47:51;;;;;;;4.87;1.43;;;10.60;99.90;;;11.45;100.00;98861.31;5008813;28;20467;-82
2021/10/07 02:50:22;;;;;;;3.50;2.23;;;10.50;99.90;;;11.41;100.00;98867.91;5011510;28;20948;-82
2021/10/07 02:52:51;;;;;;;2.30;1.70;;;10.50;99.90;;;11.42;100.00;98861.66;5013012;28;20501;-83
2021/10/07 02:55:19;;;;;;;3.50;1.70;;;10.50;99.90;;;11.43;100.00;98858.06;5009865;28;20463;-83
2021/10/07 02:57:48;;;;;;;6.80;2.30;;;10.50;99.90;;;11.41;100.00;98861.84;5000528;28;20463;-82
2021/10/07 03:00:20;;;;;;;4.70;2.03;;;10.50;99.90;;;11.41;100.00;98862.66;5011722;28;20467;-81
2021/10/07 03:02:48;;;;;;;4.00;2.57;;;10.50;99.90;;;11.40;100.00;98866.28;5009416;28;20490;-81
2021/10/07 03:05:17;;;;;;;4.97;1.77;;;10.60;99.90;;;11.40;100.00;98866.28;5005988;28;20467;-81
2021/10/07 03:07:45;;;;;;;7.17;2.00;;;10.50;99.90;;;11.38;100.00;98870.88;5005081;28;20905;-81
2021/10/07 03:10:14;;;;;;;5.50;2.00;;;10.50;99.90;;;11.39;100.00;98867.25;5015360;28;20490;-82
2021/10/07 03:12:43;;;;;;;12.33;2.30;;;10.50;99.90;;;11.39;100.00;98877.72;5004223;28;20524;-81
2021/10/07 03:15:11;;;;;;;11.57;2.37;;;10.50;99.90;;;11.39;100.00;98874.28;5010722;28;20525;-82
2021/10/07 03:17:41;;;;;;;2.63;1.73;;;10.50;99.90;;;11.38;100.00;98877.91;5007492;28;20497;-82
2021/10/07 03:20:11;;;;;;;2.53;1.70;;;10.50;99.90;;;11.36;100.00;98880.69;5010953;28;20498;-82
2021/10/07 03:22:40;;;;;;;4.30;2.07;;;10.50;99.90;;;11.31;100.00;98890.88;5000592;28;20554;-81
2021/10/07 03:25:10;;;;;;;3.93;1.83;;;10.50;99.90;;;11.32;100.00;98896.91;5014665;28;20513;-81
2021/10/07 03:27:39;;;;;;;4.37;2.23;;;10.40;99.90;;;11.34;100.00;98903.63;5019113;28;20462;-81
2021/10/07 03:30:10;;;;;;;2.40;1.70;;;10.40;99.90;;;11.36;100.00;98906.88;5009506;28;21019;-81
2021/10/07 03:32:40;;;;;;;3.33;1.80;;;10.50;99.90;;;11.37;100.00;98905.06;5012325;28;20511;-81
2021/10/07 03:35:09;;;;;;;3.97;2.33;;;10.50;99.90;;;11.38;100.00;98910.16;5017798;28;20469;-81
2021/10/07 03:37:38;;;;;;;8.37;3.90;;;10.50;99.90;;;11.37;100.00;98908.50;5011858;28;20505;-83
2021/10/07 03:40:11;;;;;;;28.63;14.67;;;10.50;99.90;;;11.35;100.00;98913.09;5007852;28;20495;-82
2021/10/07 03:42:39;;;;;;;8.53;2.80;;;10.50;99.90;;;11.37;100.00;98928.66;5005615;28;20499;-81
2021/10/07 03:45:09;;;;;;;7.67;3.70;;;10.50;99.90;;;11.39;100.00;98932.72;5010652;28;20802;-82
2021/10/07 03:47:40;;;;;;;4.50;3.00;;;10.40;99.90;;;11.40;100.00;98930.91;5007290;28;20494;-81
2021/10/07 03:50:09;;;;;;;9.27;4.53;;;10.50;99.90;;;11.38;100.00;98933.72;5004168;28;21192;-85
2021/10/07 03:52:38;;;;;;;3.10;2.80;;;10.50;99.90;;;11.39;100.00;98940.56;5002040;28;20483;-81
2021/10/07 03:55:07;;;;;;;3.43;3.13;;;10.50;99.90;;;11.38;100.00;98936.34;5006054;28;20545;-80
2021/10/07 03:57:36;;;;;;;4.23;2.70;;;10.50;99.90;;;11.38;100.00;98938.97;5010836;28;20501;-81
2021/10/07 04:00:07;;;;;;;6.50;2.47;;;10.50;99.90;;;11.38;100.00;98938.16;5009331;28;21025;-81
2021/10/07 04:02:35;;;;;;;4.27;2.67;;;10.50;99.90;;;11.35;100.00;98926.19;5006966;28;20503;-81
2021/10/07 04:05:06;;;;;;;7.83;2.40;;;10.50;99.90;;;11.35;100.00;98935.88;5011623;28;20447;-81
2021/10/07 04:07:35;;;;;;;3.20;2.57;;;10.50;99.90;;;11.35;100.00;98941.91;5000730;28;20458;-83
2021/10/07 04:10:04;;;;;;;3.90;2.10;;;10.50;99.90;;;11.36;100.00;98947.94;5004106;28;21042;-81
2021/10/07 04:12:32;;;;;;;6.03;2.70;;;10.50;99.90;;;11.36;100.00;98946.16;5007157;28;20580;-82
2021/10/07 04:15:01;;;;;;;4.43;2.17;;;10.50;99.90;;;11.35;100.00;98947.13;5006680;28;20522;-81
2021/10/07 04:17:29;;;;;;;3.63;2.37;;;10.50;99.90;;;11.35;100.00;98947.13;5007073;28;20466;-81
2021/10/07 04:19:58;;;;;;;4.60;2.60;;;10.50;99.90;;;11.34;100.00;98948.13;5005444;28;20557;-79
2021/10/07 04:22:28;;;;;;;6.03;2.40;;;10.50;99.90;;;11.29;100.00;98952.22;5006943;28;20497;-81
2021/10/07 04:24:56;;;;;;;4.00;2.10;;;10.50;99.90;;;11.30;100.00;98956.50;5005548;28;20573;-80
2021/10/07 04:27:27;;;;;;;8.27;3.50;;;10.40;99.90;;;11.30;100.00;98959.94;5010913;28;20455;-82
2021/10/07 04:29:55;;;;;;;5.67;2.83;;;10.50;99.90;;;11.31;100.00;98966.81;5005060;28;20552;-81
2021/10/07 04:32:23;;;;;;;3.00;1.70;;;10.40;99.90;;;11.31;100.00;98971.22;5007090;28;20475;-79
2021/10/07 04:34:52;;;;;;;5.13;2.33;;;10.40;99.90;;;11.28;100.00;98972.34;5010592;28;20458;-79
2021/10/07 04:37:20;;;;;;;6.30;2.83;;;10.40;99.90;;;11.25;100.00;98975.31;5010037;28;20529;-79
2021/10/07 04:39:51;;;;;;;4.77;2.17;;;10.40;99.90;;;11.19;100.00;98977.78;5009690;28;20447;-79
2021/10/07 04:42:19;;;;;;;4.90;1.67;;;10.30;99.90;;;11.17;100.00;98974.53;5013759;28;20942;-79
2021/10/07 04:44:48;;;;;;;8.00;2.27;;;10.20;99.90;;;11.17;100.00;98972.75;5021230;28;20494;-79
2021/10/07 04:47:16;;;;;;;12.67;2.30;;;10.30;99.90;;;11.13;100.00;98981.91;5018966;28;20450;-79
2021/10/07 04:49:45;;;;;;;3.10;2.00;;;10.20;99.90;;;11.10;100.00;98971.78;5010056;28;20558;-79
2021/10/07 04:52:13;;;;;;;2.23;2.03;;;10.20;99.90;;;11.07;100.00;98977.34;5018879;28;20446;-79
2021/10/07 04:54:42;;;;;;;2.43;1.83;;;10.20;99.90;;;11.05;100.00;98979.31;5013272;28;20451;-79
2021/10/07 04:57:12;;;;;;;5.00;2.30;;;10.20;99.90;;;11.02;100.00;98988.31;5014336;28;20505;-79
2021/10/07 04:59:40;;;;;;;3.30;2.20;;;10.10;99.90;;;11.01;100.00;98989.28;5015840;28;20451;-79
2021/10/07 05:02:09;;;;;;;3.30;2.13;;;10.10;99.90;;;11.04;100.00;98990.75;5018692;28;20442;-79
2021/10/07 05:04:38;;;;;;;3.93;2.30;;;10.10;99.90;;;11.07;100.00;98987.81;5014718;28;20503;-79
2021/10/07 05:07:06;;;;;;;8.10;2.00;;;10.10;99.90;;;11.08;100.00;98992.03;5017202;28;20455;-79
2021/10/07 05:09:36;;;;;;;6.57;2.40;;;10.20;99.90;;;11.06;100.00;98994.03;5013698;28;20502;-79
2021/10/07 05:12:05;;;;;;;2.80;2.13;;;10.30;99.90;;;11.07;100.00;99006.13;5012021;28;20513;-79
2021/10/07 05:14:36;;;;;;;9.43;2.40;;;10.20;99.90;;;11.05;100.00;99005.47;5024264;28;20486;-79
2021/10/07 05:17:05;;;;;;;4.60;2.10;;;10.20;99.90;;;11.07;100.00;99006.13;5017743;28;20540;-79
2021/10/07 05:19:33;;;;;;;2.60;2.10;;;10.20;99.90;;;11.04;100.00;99004.66;5012498;28;20484;-79
2021/10/07 05:22:02;;;;;;;3.00;1.97;;;10.10;99.90;;;11.06;100.00;99001.88;5019271;28;20482;-79
2021/10/07 05:24:33;;;;;;;2.97;2.37;;;10.20;99.90;;;11.00;100.00;99005.16;5010660;28;21047;-79
2021/10/07 05:27:01;;;;;;;3.97;2.30;;;10.10;99.90;;;10.99;100.00;99006.16;5015009;28;20487;-79
2021/10/07 05:29:30;;;;;;;3.60;2.33;;;10.20;99.90;;;10.98;100.00;99012.34;5027900;28;20503;-80
2021/10/07 05:32:00;;;;;;;2.90;2.20;;;10.10;99.90;;;10.95;100.00;99020.53;5012934;28;20497;-79
2021/10/07 05:34:28;;;;;;;6.20;2.27;;;10.10;99.90;;;10.94;100.00;99024.94;5021392;28;20450;-79
2021/10/07 05:36:57;;;;;;;2.20;2.00;;;10.10;99.90;;;10.94;100.00;99022.34;5024792;28;20496;-79
2021/10/07 05:39:26;;;;;;;3.87;2.23;;;10.00;99.90;;;10.98;100.00;99039.34;5017362;28;20442;-79
2021/10/07 05:41:55;;;;;;;4.10;2.10;;;10.10;99.90;;;11.02;100.00;99024.94;5017488;28;20489;-79
2021/10/07 05:44:23;;;;;;;3.53;2.13;;;10.10;99.90;;;11.06;100.00;99035.91;5029223;28;20552;-79
2021/10/07 05:46:52;;;;;;;5.13;2.10;;;10.20;99.90;;;11.05;100.00;99036.88;5026161;28;20610;-78
2021/10/07 05:49:22;;;;;;;4.63;2.00;;;10.20;99.90;;;11.04;100.00;99037.84;5014431;28;20489;-79
2021/10/07 05:51:50;;;;;;;3.67;2.10;;;10.10;99.90;;;11.03;100.00;99044.09;5018980;28;20934;-79
2021/10/07 05:54:19;;;;;;;8.83;3.47;;;10.10;99.90;;;11.03;100.00;99039.69;5024479;28;20455;-79
2021/10/07 05:56:48;;;;;;;2.77;2.30;;;10.20;99.90;;;11.06;100.00;99035.91;5012778;28;21007;-79
2021/10/07 05:59:16;;;;;;;3.90;2.93;;;10.30;99.90;;;11.02;100.00;99042.44;5014949;28;20516;-79
2021/10/07 06:01:45;;;;;;;4.10;1.97;;;10.20;99.90;;;11.00;100.00;99047.03;5028135;28;20437;-79
2021/10/07 06:04:14;;;;;;;8.17;2.27;;;10.10;99.90;;;11.02;100.00;99042.44;5022608;28;20487;-79
2021/10/07 06:06:45;;;;;;;7.40;2.60;;;10.10;99.90;;;11.04;100.00;99043.09;5021131;28;20446;-79
2021/10/07 06:09:14;;;;;;;8.60;2.50;;;10.10;99.90;;;11.07;100.00;99042.78;5015396;28;20471;-79
2021/10/07 06:11:43;;;;;;;3.57;2.27;;;10.20;99.90;;;11.07;100.00;99048.81;5027416;28;20450;-79
2021/10/07 06:14:11;;;;;;;6.23;2.77;;;10.20;99.90;;;11.08;100.00;99047.84;5019431;28;20498;-79
2021/10/07 06:16:40;;;;;;;4.00;2.27;;;10.20;99.90;;;11.08;100.00;99053.06;5014569;28;20505;-79
2021/10/07 06:19:11;;;;;;;4.63;2.43;;;10.20;99.90;;;11.12;100.00;99056.19;5024558;28;20454;-79
2021/10/07 06:21:40;;;;;;;2.53;2.17;;;10.20;99.90;;;11.11;100.00;99054.53;5021659;28;20462;-79
2021/10/07 06:24:10;;;;;;;3.10;2.47;;;10.30;99.90;;;11.12;100.00;99050.94;5020515;28;20463;-79
2021/10/07 06:26:40;;;;;;;3.80;2.47;;;10.30;99.90;;;11.13;100.00;99051.75;5020810;28;20447;-79
2021/10/07 06:29:09;;;;;;;4.40;2.30;;;10.40;99.90;;;11.16;100.00;99048.81;5025120;28;20510;-79
2021/10/07 06:31:39;;;;;;;5.77;2.43;;;10.40;99.90;;;11.21;100.00;99049.16;5017293;28;21006;-79
2021/10/07 06:34:08;;;;;;;4.50;2.27;;;10.40;99.90;;;11.25;100.00;99060.91;5019063;28;20512;-79
2021/10/07 06:36:37;;;;;;;6.63;2.40;;;10.40;99.90;;;11.24;100.00;99054.88;5021584;28;20450;-80
2021/10/07 06:39:07;;;;;;;5.33;2.53;;;10.30;99.90;;;11.25;100.00;99061.72;5026550;28;20485;-79
2021/10/07 06:41:37;;;;;;;4.00;2.07;;;10.40;99.90;;;11.28;100.00;99060.59;5013091;28;20470;-79
2021/10/07 06:44:06;;;;;;;3.77;2.70;;;10.40;99.90;;;11.29;100.00;99067.44;5030047;28;20442;-79
2021/10/07 06:46:34;;;;;;;3.80;2.40;;;10.40;99.90;;;11.31;100.00;99061.06;5013653;28;20443;-80
2021/10/07 06:49:03;;;;;;;3.10;2.30;;;10.40;99.90;;;11.32;100.00;99067.94;5016840;28;20850;-79
2021/10/07 06:51:32;;;;;;;4.23;3.00;;;10.40;99.90;;;11.36;100.00;99069.22;5022082;28;20446;-80
2021/10/07 06:54:01;;;;;;;15.63;3.00;;;10.50;99.90;;;11.38;100.00;99083.00;5023975;28;20942;-79
2021/10/07 06:56:31;;;;;;;4.67;2.00;;;10.50;99.90;;;11.41;100.00;99082.66;5020821;28;20973;-80
2021/10/07 06:59:01;;;;;;;3.43;2.10;;;10.60;99.90;;;11.41;100.00;99082.66;5015941;28;20564;-79
2021/10/07 07:01:30;;;;;;;6.47;2.40;;;10.60;99.90;;;11.45;100.00;99089.16;5025602;28;20543;-79
2021/10/07 07:03:59;;;;;;;2.50;2.13;;;10.70;99.90;;;11.44;100.00;99092.81;5014570;28;20447;-79
2021/10/07 07:06:29;;;;;;;3.00;1.90;;;10.60;99.90;;;11.45;100.00;99094.41;5017549;28;20532;-80
2021/10/07 07:08:58;;;;;;;3.90;2.50;;;10.60;99.90;;;11.46;100.00;99098.69;5013908;28;20485;-79
2021/10/07 07:11:27;;;;;;;4.53;2.50;;;10.70;99.90;;;11.50;100.00;99097.38;5009662;28;20938;-79
2021/10/07 07:13:57;;;;;;;4.10;2.77;;;10.70;99.90;;;11.53;100.00;99097.03;5012601;28;20548;-79
2021/10/07 07:16:27;;;;;;;4.07;2.20;;;10.70;99.90;;;11.48;100.00;99096.72;5021426;28;20463;-79
2021/10/07 07:18:55;;;;;;;12.37;2.80;;;10.60;99.90;;;11.53;100.00;99094.41;5021689;28;20451;-79
2021/10/07 07:21:26;;;;;;;4.20;2.20;;;10.70;99.90;;;11.53;100.00;99099.66;5017627;28;20951;-79
2021/10/07 07:23:55;;;;;;;6.87;2.77;;;10.70;99.90;;;11.54;100.00;99093.44;5022623;28;20446;-80
2021/10/07 07:26:23;;;;;;;4.20;3.73;;;10.70;99.90;;;11.57;100.00;99092.28;5016530;28;20490;-79
2021/10/07 07:28:52;;;;;;;3.43;2.20;;;10.80;99.90;;;11.61;100.00;99094.41;5014502;28;20512;-79
2021/10/07 07:31:23;;;;;;;3.97;2.03;;;10.80;99.90;;;11.65;100.00;99094.88;5015746;28;20443;-79
2021/10/07 07:33:54;;;;;;;11.70;2.93;;;10.80;99.90;;;11.70;100.00;99097.00;5017055;28;20532;-79
2021/10/07 07:36:25;;;;;;;6.60;3.00;;;10.90;99.90;;;11.73;100.00;99101.94;5013077;28;20479;-79
2021/10/07 07:38:54;;;;;;;6.97;3.07;;;11.00;99.90;;;11.77;100.00;99113.69;5012674;28;20536;-79
2021/10/07 07:41:36;;;;;;;5.47;2.93;;;11.10;99.90;;;11.79;100.00;99124.84;5022014;28;20537;-80
2021/10/07 07:44:07;;;;;;;4.20;2.47;;;11.20;99.90;;;11.82;100.00;99121.88;5029499;28;20438;-79
2021/10/07 07:46:35;;;;;;;3.53;3.00;;;11.20;99.90;;;11.85;100.00;99116.31;5019596;28;20502;-79
2021/10/07 07:49:05;;;;;;;5.53;2.70;;;11.30;99.90;;;11.87;100.00;99124.84;5011136;28;20455;-79
2021/10/07 07:51:34;;;;;;;3.63;2.70;;;11.30;99.90;;;11.87;100.00;99130.06;5024499;28;20478;-79
2021/10/07 07:54:03;;;;;;;4.50;2.40;;;11.30;99.90;;;11.85;100.00;99124.16;5023954;28;20899;-79
2021/10/07 07:56:31;;;;;;;3.33;2.33;;;11.40;99.90;;;11.87;100.00;99124.84;5025544;28;20923;-79
2021/10/07 07:59:01;;;;;;;6.47;2.53;;;11.40;99.90;;;11.88;100.00;99126.44;5013760;28;20508;-79
2021/10/07 08:01:31;;;;;;;3.70;2.60;;;11.30;99.90;;;11.89;100.00;99128.09;5007967;28;20446;-79
2021/10/07 08:04:00;;;;;;;4.57;2.40;;;11.20;99.90;;;11.91;100.00;99131.34;5018939;28;20447;-79
2021/10/07 08:06:32;;;;;;;5.57;2.53;;;11.20;99.90;;;11.94;100.00;99141.53;5014262;28;20549;-79
2021/10/07 08:09:00;;;;;;;3.27;2.57;;;11.20;99.90;;;11.96;100.00;99134.28;5010140;28;20517;-79
2021/10/07 08:11:29;;;;;;;6.50;2.40;;;11.20;99.90;;;11.99;100.00;99133.94;5017335;28;20446;-79
2021/10/07 08:13:59;;;;;;;7.97;2.27;;;11.20;99.90;;;11.99;100.00;99126.91;5018081;28;20483;-79
2021/10/07 08:16:29;;;;;;;4.30;2.57;;;11.20;99.90;;;11.99;100.00;99136.56;5019521;28;20459;-79
2021/10/07 08:18:57;;;;;;;4.60;2.43;;;11.10;99.90;;;12.04;100.00;99136.91;5020085;28;20451;-79
2021/10/07 08:21:26;;;;;;;3.07;2.23;;;11.20;99.90;;;12.07;100.00;99136.56;5015669;28;20866;-80
2021/10/07 08:23:57;;;;;;;3.20;2.43;;;11.20;99.90;;;12.08;100.00;99122.44;5021096;28;20450;-80
2021/10/07 08:26:26;;;;;;;3.10;2.07;;;11.30;99.90;;;12.11;100.00;99132.63;5023334;28;20493;-80
2021/10/07 08:28:54;;;;;;;3.70;2.43;;;11.30;99.90;;;12.12;100.00;99134.22;5022537;28;20453;-79
2021/10/07 08:31:23;;;;;;;6.83;2.00;;;11.30;99.90;;;12.16;100.00;99138.16;5022555;28;20488;-79
2021/10/07 08:33:51;;;;;;;7.40;2.50;;;11.40;99.90;;;12.26;100.00;99145.81;5022496;28;20478;-79
2021/10/07 08:36:20;;;;;;;5.37;2.33;;;11.60;99.90;;;12.31;100.00;99146.94;5018835;28;20447;-79
2021/10/07 08:38:48;;;;;;;5.00;2.60;;;11.70;99.90;;;12.35;100.00;99139.56;5019871;28;20496;-79
2021/10/07 08:41:20;;;;;;;3.60;2.87;;;11.80;99.90;;;12.39;100.00;99144.25;5019104;28;20447;-79
2021/10/07 08:43:51;;;;;;;3.43;2.70;;;11.90;99.90;;;12.45;100.00;99143.59;5017841;28;20954;-80
2021/10/07 08:46:24;;;;;;;3.20;2.63;;;11.90;99.90;;;12.52;100.00;99147.19;5018037;28;20586;-80
2021/10/07 08:48:53;;;;;;;14.73;3.00;;;11.90;99.90;;;12.59;100.00;99152.53;5016137;28;20489;-79
2021/10/07 08:51:22;;;;;;;4.10;2.57;;;12.10;99.90;;;12.67;100.00;99159.56;5020622;28;20451;-79
2021/10/07 08:53:50;;;;;;;4.60;2.80;;;12.10;99.90;;;12.73;100.00;99158.88;5023825;28;20445;-80
2021/10/07 08:56:21;;;;;;;8.33;3.20;;;12.20;99.90;;;12.82;100.00;99157.81;5021198;28;20822;-79
2021/10/07 08:58:49;;;;;;;7.93;3.70;;;12.30;99.90;;;12.89;100.00;99156.13;5022867;28;20442;-80
2021/10/07 09:01:39;;;;;;;9.60;3.53;;;12.40;99.90;;;12.93;100.00;99154.78;5022579;28;20500;-80
2021/10/07 09:04:20;;;;;;;5.03;2.90;;;12.40;99.90;;;13.00;100.00;99159.19;5010031;28;20447;-80
2021/10/07 09:06:52;;;;;;;7.53;3.73;;;12.50;99.90;;;13.07;100.00;99156.66;5012168;28;20537;-79
2021/10/07 09:09:26;;;;;;;5.07;3.23;;;12.60;99.90;;;13.14;100.00;99148.94;5013431;28;20557;-80
2021/10/07 09:11:57;;;;;;;12.70;3.30;;;12.70;99.90;;;13.21;100.00;99153.31;5017226;28;20447;-80
2021/10/07 09:14:29;;;;;;;6.40;3.67;;;12.80;99.90;;;13.28;100.00;99154.25;5013223;28;20486;-80
2021/10/07 09:17:00;;;;;;;5.43;3.20;;;12.80;99.90;;;13.32;100.00;99155.53;5012302;28;20467;-79
2021/10/07 09:19:31;;;;;;;12.90;4.13;;;12.90;99.90;;;13.36;100.00;99154.16;5021087;28;20948;-80
2021/10/07 09:22:13;;;;;;;8.27;3.90;;;12.90;99.90;;;13.38;100.00;99154.81;5014686;28;20455;-80
2021/10/07 09:24:45;;;;;;;6.77;3.70;;;12.80;99.90;;;13.41;100.00;99151.81;5010444;28;20504;-80
2021/10/07 09:27:19;;;;;;;5.77;3.80;;;12.80;99.90;;;13.49;100.00;99161.44;5018477;28;20525;-80
2021/10/07 09:29:53;;;;;;;4.80;3.17;;;12.90;99.90;;;13.54;100.00;99157.28;5020732;28;20446;-80
2021/10/07 09:32:29;;;;;;;7.60;3.20;;;12.90;99.90;;;13.54;100.00;99159.91;5016155;28;20465;-80
2021/10/07 09:35:01;;;;;;;8.37;3.10;;;12.90;99.90;;;13.57;100.00;99161.38;5016201;28;20442;-80
2021/10/07 09:37:33;;;;;;;3.70;3.00;;;13.00;99.90;;;13.62;100.00;99159.03;5023338;28;20458;-80
2021/10/07 09:40:08;;;;;;;10.63;3.60;;;13.00;99.90;;;13.66;100.00;99157.69;5017866;28;20470;-80
2021/10/07 09:42:43;;;;;;;10.20;4.00;;;13.10;99.90;;;13.70;100.00;99164.22;5016393;28;20466;-80
2021/10/07 09:45:18;;;;;;;9.13;3.97;;;13.10;99.90;;;13.73;100.00;99157.78;5020778;28;21003;-80
2021/10/07 09:47:51;;;;;;;5.40;3.40;;;13.10;99.90;;;13.74;100.00;99156.78;5006563;28;20494;-80
2021/10/07 09:50:29;;;;;;;13.07;3.77;;;13.10;99.90;;;13.79;100.00;99151.78;5015053;28;20453;-80
2021/10/07 09:53:04;;;;;;;7.47;3.20;;;13.10;99.90;;;13.78;100.00;99147.56;5009683;28;20810;-80
2021/10/07 09:55:37;;;;;;;6.00;3.40;;;13.10;99.90;;;13.77;100.00;99138.03;5022610;28;20453;-80
2021/10/07 09:58:15;;;;;;;5.23;3.57;;;13.10;99.90;;;13.78;100.00;99143.09;5017025;28;20474;-80
2021/10/07 10:00:46;;;;;;;5.43;3.67;;;13.20;99.90;;;13.70;100.00;99147.63;5016099;28;20450;-79
2021/10/07 10:03:16;;;;;;;8.03;3.70;;;13.10;99.90;;;13.72;100.00;99145.63;5016641;28;20450;-79
2021/10/07 10:05:47;;;;;;;6.83;3.43;;;13.10;99.90;;;13.72;100.00;99141.19;5022185;28;20443;-80
2021/10/07 10:08:21;;;;;;;5.00;3.60;;;13.10;99.90;;;13.70;100.00;99132.66;5011049;28;20494;-80
2021/10/07 10:10:52;;;;;;;4.43;3.23;;;13.00;99.90;;;13.68;100.00;99137.28;5016517;28;20498;-80
2021/10/07 10:13:22;;;;;;;4.70;3.63;;;12.90;99.90;;;13.66;100.00;99144.53;5025481;28;20512;-80
2021/10/07 10:15:52;;;;;;;5.00;3.83;;;13.00;99.90;;;13.67;100.00;99143.53;5022834;28;20455;-79
2021/10/07 10:18:21;;;;;;;4.50;3.30;;;12.90;99.90;;;13.63;100.00;99141.44;5018265;28;20545;-80
2021/10/07 10:20:53;;;;;;;3.97;3.37;;;12.80;99.90;;;13.63;100.00;99141.44;5016183;28;20446;-80
2021/10/07 10:23:25;;;;;;;4.27;3.87;;;12.80;99.90;;;13.64;100.00;99137.84;5021214;28;20572;-80
2021/10/07 10:25:59;;;;;;;4.03;3.50;;;12.80;99.90;;;13.67;100.00;99137.47;5026081;28;20871;-80
2021/10/07 10:28:51;;;;;;;4.60;3.10;;;12.80;99.90;;;13.67;100.00;99137.47;5022432;28;20502;-80